• Join FlightAware (Why Join?)
  • Login
  • US Flag 
11:09AM EST


 

Airport Tracker/Info


-or-


 

Live Flight TrackerFlight Track Log ✈ AAL1624 ✈ 29-Apr-2013 ✈ KORD - KMCI

Flight Track Log - Related Links

Times and Time Zones

All times are in EDT time to prevent confusion due to time zone crossing. See the AAL1624 flight status page for this flight to view local times or setup timezone preferences in your user account.

Time Position Orientation Groundspeed Altitude Reporting Facility
EDT Latitude Longitude Course Direction KTS MPH feet Rate Location/Type
11:33PM 41.9820 -87.8920 137° Southeast 152 175 1,300  Level FlightAware
11:33PM 41.9700 -87.8760 135° Southeast 148 170 2,400 1,920 Climbing FlightAware
11:34PM 41.9550 -87.8530 131° Southeast 181 208 3,100 1,380 Climbing FlightAware
11:34PM 41.9360 -87.8350 145° Southeast 205 236 3,700 1,620 Climbing FlightAware
11:35PM 41.9130 -87.8560 214° Southwest 228 262 4,600 1,680 Climbing FlightAware
11:35PM 41.9110 -87.8760 262° West 251 289 5,000 1,020 Climbing FlightAware
11:36PM 41.9120 -87.9180 272° West 256 295 5,300 1,620 Climbing FlightAware
11:36PM 41.9130 -87.9620 272° West 253 291 6,500 2,700 Climbing FlightAware
11:36PM 41.9120 -87.9990 268° West 253 291 7,800 3,000 Climbing FlightAware
11:37PM 41.9110 -88.0450 268° West 258 297 9,300 3,000 Climbing FlightAware
11:38PM 41.9090 -88.1210 268° West 273 314 11,600 3,240 Climbing FlightAware
11:38PM 41.9050 -88.1900 266° West 280 322 13,900 2,760 Climbing FlightAware
11:39PM 41.8860 -88.2610 250° West 320 368 15,300 1,740 Climbing FlightAware
11:40PM 41.8630 -88.3560 252° West 363 418 16,400 1,920 Climbing FlightAware
11:40PM 41.8470 -88.4450 256° West 375 432 18,100 2,520 Climbing FlightAware
11:41PM 41.8280 -88.5370 255° West 386 444 19,800 2,280 Climbing FlightAware
11:42PM 41.8040 -88.6370 252° West 398 458 21,400 2,280 Climbing FlightAware
11:43PM 41.7800 -88.7380 252° West 404 465 23,100 2,220 Climbing FlightAware
11:43PM 41.7550 -88.8450 253° West 411 473 24,600 1,920 Climbing FlightAware
11:44PM 41.7330 -88.9390 253° West 417 480 25,900 1,800 Climbing FlightAware
11:45PM 41.7100 -89.0410 253° West 424 488 27,000 1,680 Climbing FlightAware
11:45PM 41.6820 -89.1570 252° West 429 494 28,300 1,680 Climbing FlightAware
11:46PM 41.6590 -89.2540 252° West 433 498 29,400 1,800 Climbing FlightAware
11:47PM 41.6330 -89.3650 253° West 430 495 30,900 2,160 Climbing FlightAware
11:47PM 41.6080 -89.4700 252° West 423 487 32,500 1,860 Climbing FlightAware
11:48PM 41.5810 -89.5820 252° West 424 488 33,600 1,320 Climbing FlightAware
11:49PM 41.5560 -89.6850 252° West 431 496 34,400 1,260 Climbing FlightAware
11:50PM 41.5320 -89.7830 252° West 432 497 35,300 1,440 Climbing FlightAware
11:50PM 41.5040 -89.8990 252° West 428 493 36,500 1,440 Climbing FlightAware
11:51PM 41.4800 -89.9990 252° West 426 490 37,400 1,260 Climbing FlightAware
11:52PM 41.4560 -90.0970 252° West 425 489 38,200 1,020 Climbing FlightAware
11:52PM 41.4290 -90.2060 252° West 424 488 38,900 1,020 Climbing FlightAware
11:53PM 41.4040 -90.3040 251° West 420 483 39,700 720 Climbing FlightAware
11:54PM 41.3600 -90.4090 241° Southwest 425 489 40,000 180 Climbing FlightAware
11:54PM 41.3180 -90.4980 238° Southwest 426 490 40,000  Level FlightAware
11:55PM 41.2710 -90.5960 237° Southwest 427 491 40,000  Level FlightAware
11:56PM 41.2290 -90.6840 238° Southwest 430 495 40,000  Level FlightAware
11:57PM 41.1880 -90.7700 238° Southwest 431 496 40,000  Level FlightAware
11:57PM 41.1390 -90.8740 238° Southwest 431 496 40,000  Level FlightAware
11:58PM 41.0960 -90.9640 238° Southwest 428 493 40,000  Level FlightAware
11:59PM 41.0530 -91.0530 237° Southwest 426 490 40,000  Level FlightAware
11:59PM 41.0070 -91.1490 238° Southwest 426 490 40,000  Level FlightAware
12:00AM 40.9650 -91.2360 237° Southwest 426 490 40,000  Level FlightAware
12:01AM 40.9150 -91.3370 237° Southwest 425 489 40,000  Level FlightAware
12:01AM 40.8730 -91.4240 237° Southwest 424 488 40,000  Level FlightAware
12:02AM 40.8320 -91.5090 238° Southwest 424 488 40,000  Level FlightAware
12:03AM 40.7830 -91.6080 237° Southwest 424 488 40,000  Level FlightAware
12:04AM 40.7410 -91.6930 237° Southwest 424 488 40,000  Level FlightAware
12:04AM 40.6980 -91.7810 237° Southwest 424 488 40,000  Level FlightAware
12:05AM 40.6540 -91.8710 237° Southwest 425 489 40,000  Level FlightAware
12:06AM 40.6060 -91.9680 237° Southwest 425 489 40,000 -300 Level FlightAware
12:07AM 40.5330 -92.1140 237° Southwest 426 490 39,500 -660 Descending FlightAware
12:08AM 40.4840 -92.2140 237° Southwest 430 495 38,800 -1,020 Descending FlightAware
12:08AM 40.4470 -92.2880 237° Southwest 436 502 38,200 -1,020 Descending FlightAware
12:09AM 40.3880 -92.4030 236° Southwest 442 509 37,400 -960 Descending FlightAware
12:10AM 40.3420 -92.4940 236° Southwest 446 513 36,800 -1,020 Descending FlightAware
12:10AM 40.2980 -92.5820 237° Southwest 449 517 36,100 -1,020 Descending FlightAware
12:11AM 40.2450 -92.6870 237° Southwest 446 513 35,400 -1,140 Descending FlightAware
12:12AM 40.1990 -92.7780 237° Southwest 443 510 34,500 -2,340 Descending FlightAware
12:12AM 40.1490 -92.8750 236° Southwest 449 517 32,100 -3,180 Descending FlightAware
12:13AM 40.1030 -92.9660 237° Southwest 451 519 30,000 -2,940 Descending FlightAware
12:14AM 40.0570 -93.0570 237° Southwest 444 511 28,200 -2,700 Descending FlightAware
12:15AM 40.0050 -93.1570 236° Southwest 430 495 26,200 -2,700 Descending FlightAware
12:15AM 39.9610 -93.2420 236° Southwest 415 478 24,400 -2,580 Descending FlightAware
12:16AM 39.9150 -93.3300 236° Southwest 402 463 22,600 -2,400 Descending FlightAware
12:17AM 39.8740 -93.4100 236° Southwest 390 449 21,000 -2,400 Descending FlightAware
12:17AM 39.8340 -93.4870 236° Southwest 379 436 19,400 -2,400 Descending FlightAware
12:18AM 39.7900 -93.5710 236° Southwest 367 422 17,600 -2,280 Descending FlightAware
12:19AM 39.7520 -93.6440 236° Southwest 355 409 16,200 -2,160 Descending FlightAware
12:19AM 39.7130 -93.7180 236° Southwest 343 395 14,600 -2,160 Descending FlightAware
12:20AM 39.6770 -93.7860 235° Southwest 335 386 13,200 -1,680 Descending FlightAware
12:21AM 39.6430 -93.8510 236° Southwest 313 360 12,400 -1,140 Descending FlightAware
12:22AM 39.6070 -93.9220 237° Southwest 308 354 11,600 -1,080 Descending FlightAware
12:22AM 39.5770 -93.9830 237° Southwest 288 331 10,900 -1,080 Descending FlightAware
12:23AM 39.5460 -94.0430 236° Southwest 269 310 10,100 -1,080 Descending FlightAware
12:23AM 39.5290 -94.0790 239° Southwest 262 302 9,700 -1,140 Descending FlightAware
12:24AM 39.5210 -94.1240 257° West 259 298 9,100 -1,140 Descending FlightAware
12:24AM 39.5160 -94.1590 260° West 253 291 8,700 -1,020 Descending FlightAware
12:25AM 39.5100 -94.2050 260° West 246 283 8,200 -540 Descending FlightAware
12:25AM 39.4990 -94.2470 251° West 248 285 8,200 -360 Level FlightAware
12:26AM 39.4900 -94.2840 253° West 241 277 7,900 -1,020 Descending FlightAware
12:26AM 39.4790 -94.3230 250° West 237 273 7,300 -1,200 Descending FlightAware
12:27AM 39.4710 -94.3550 252° West 235 270 6,800 -1,200 Descending FlightAware
12:27AM 39.4630 -94.3880 253° West 234 269 6,300 -1,380 Descending FlightAware
12:27AM 39.4550 -94.4170 250° West 230 265 5,800 -1,200 Descending FlightAware
12:28AM 39.4470 -94.4470 251° West 227 261 5,400 -1,020 Descending FlightAware
12:28AM 39.4370 -94.4850 251° West 222 255 4,900 -1,020 Descending FlightAware
12:29AM 39.4280 -94.5200 252° West 207 238 4,400 -1,080 Descending FlightAware
12:29AM 39.4250 -94.5330 253° West 204 235 4,200 -600 Descending FlightAware
12:30AM 39.4140 -94.5760 252° West 197 227 3,900 -1,140 Descending FlightAware
12:30AM 39.4042 -94.6117 252° West 187 215 2,700 -900 Descending Kansas City Center
12:31AM 39.3900 -94.6658 251° West 168 193 2,500 -360 Descending Kansas City Center
12:32AM 39.3583 -94.6864 207° Southwest 120 138 2,000 -540 Descending Kansas City Center